createdAt,value
2022-11-14T00:00:02.437Z,7.62
2022-11-14T00:01:02.443Z,7.60
2022-11-14T00:02:02.435Z,7.62
2022-11-14T00:03:02.506Z,7.63
2022-11-14T00:04:02.462Z,7.60
2022-11-14T00:05:02.474Z,7.58
2022-11-14T00:06:02.375Z,7.60
2022-11-14T00:07:02.423Z,7.58
2022-11-14T00:08:02.489Z,7.58
2022-11-14T00:09:02.392Z,7.58
2022-11-14T00:10:02.403Z,7.58
2022-11-14T00:11:02.349Z,7.60
2022-11-14T00:12:02.325Z,7.58
2022-11-14T00:13:02.286Z,7.54
2022-11-14T00:14:02.291Z,7.55
2022-11-14T00:15:02.315Z,7.55
2022-11-14T00:16:02.360Z,7.54
2022-11-14T00:17:02.246Z,7.52
2022-11-14T00:18:02.239Z,7.52
2022-11-14T00:19:02.236Z,7.52
2022-11-14T00:20:02.234Z,7.51
2022-11-14T00:21:02.206Z,7.48
2022-11-14T00:22:02.198Z,7.50
2022-11-14T00:23:02.187Z,7.51
2022-11-14T00:24:02.521Z,7.48
2022-11-14T00:25:02.159Z,7.50
2022-11-14T00:26:02.164Z,7.51
2022-11-14T00:27:02.147Z,7.48
2022-11-14T00:28:02.223Z,7.50
2022-11-14T00:29:02.174Z,7.48
2022-11-14T00:30:02.145Z,7.48
2022-11-14T00:31:02.107Z,7.47
2022-11-14T00:32:02.103Z,7.44
2022-11-14T00:33:02.082Z,7.45
2022-11-14T00:34:02.126Z,7.45
2022-11-14T00:35:02.070Z,7.45
2022-11-14T00:36:02.081Z,7.47
2022-11-14T00:37:02.064Z,7.42
2022-11-14T00:38:02.071Z,7.44
2022-11-14T00:39:02.027Z,7.45
2022-11-14T00:40:02.003Z,7.47
2022-11-14T00:41:01.991Z,7.45
2022-11-14T00:42:02.001Z,7.44
2022-11-14T00:43:01.986Z,7.44
2022-11-14T00:44:02.032Z,7.44
2022-11-14T00:45:01.957Z,7.44
2022-11-14T00:46:01.945Z,7.44
2022-11-14T00:47:01.930Z,7.41
2022-11-14T00:48:01.926Z,7.41
2022-11-14T00:49:01.924Z,7.39
2022-11-14T00:50:01.980Z,7.44
2022-11-14T00:51:01.890Z,7.41
2022-11-14T00:52:01.880Z,7.37
2022-11-14T00:53:01.869Z,7.39
2022-11-14T00:54:01.894Z,7.34
2022-11-14T00:55:01.962Z,7.34
2022-11-14T00:56:01.840Z,7.33
2022-11-14T00:57:01.823Z,7.33
2022-11-14T00:58:01.819Z,7.30
2022-11-14T00:59:01.812Z,7.30
2022-11-14T01:00:01.807Z,7.29
2022-11-14T01:01:01.990Z,7.27
2022-11-14T01:02:01.829Z,7.27
2022-11-14T01:03:01.822Z,7.27
2022-11-14T01:04:01.760Z,7.26
2022-11-14T01:05:01.742Z,7.24
2022-11-14T01:06:01.740Z,7.24
2022-11-14T01:07:01.762Z,7.24
2022-11-14T01:08:01.743Z,7.23
2022-11-14T01:09:01.781Z,7.23
2022-11-14T01:10:01.699Z,7.21
2022-11-14T01:11:07.808Z,7.21
2022-11-14T01:12:01.823Z,7.19
2022-11-14T01:13:01.677Z,7.19
2022-11-14T01:14:02.365Z,7.24
2022-11-14T01:15:01.680Z,7.19
2022-11-14T01:16:01.691Z,7.16
2022-11-14T01:17:01.616Z,7.19
2022-11-14T01:18:01.645Z,7.21
2022-11-14T01:19:01.594Z,7.21
2022-11-14T01:20:01.603Z,7.21
2022-11-14T01:21:01.589Z,7.19
2022-11-14T01:22:05.929Z,7.18
2022-11-14T01:23:01.577Z,7.15
2022-11-14T01:24:01.557Z,7.15
2022-11-14T01:25:01.557Z,7.14
2022-11-14T01:26:01.531Z,7.12
2022-11-14T01:27:01.535Z,7.14
2022-11-14T01:28:01.537Z,7.12
2022-11-14T01:29:01.497Z,7.14
2022-11-14T01:30:01.489Z,7.14
2022-11-14T01:31:01.509Z,7.12
2022-11-14T01:32:01.488Z,7.11
2022-11-14T01:33:01.464Z,7.11
2022-11-14T01:34:01.463Z,7.08
2022-11-14T01:35:01.438Z,7.08
2022-11-14T01:36:01.425Z,7.09
2022-11-14T01:37:01.439Z,7.09
2022-11-14T01:38:01.436Z,7.09
2022-11-14T01:39:01.400Z,7.07
2022-11-14T01:40:01.386Z,7.07
2022-11-14T01:41:01.365Z,7.08
2022-11-14T01:42:01.360Z,7.07
2022-11-14T01:43:01.369Z,7.07
2022-11-14T01:44:01.376Z,7.07
2022-11-14T01:45:01.327Z,7.04
2022-11-14T01:46:01.323Z,7.01
2022-11-14T01:47:01.311Z,7.01
2022-11-14T01:48:01.336Z,7.00
2022-11-14T01:49:01.316Z,7.00
2022-11-14T01:50:01.274Z,7.01
2022-11-14T01:51:01.274Z,7.01
2022-11-14T01:52:01.282Z,7.05
2022-11-14T01:53:01.262Z,7.05
2022-11-14T01:54:01.262Z,7.05
2022-11-14T01:55:01.236Z,7.05
2022-11-14T01:56:01.214Z,7.07
2022-11-14T01:57:01.204Z,7.07
2022-11-14T01:58:01.205Z,7.09
2022-11-14T01:59:01.177Z,7.08
2022-11-14T02:00:01.188Z,7.08
2022-11-14T02:01:01.254Z,7.09
2022-11-14T02:02:01.157Z,7.08
2022-11-14T02:03:01.153Z,7.11
2022-11-14T02:04:02.016Z,7.11
2022-11-14T02:05:01.139Z,7.09
2022-11-14T02:06:01.111Z,7.08
2022-11-14T02:07:01.199Z,7.07
2022-11-14T02:08:01.106Z,7.07
2022-11-14T02:09:01.140Z,7.07
2022-11-14T02:10:01.090Z,7.07
2022-11-14T02:11:01.054Z,7.09
2022-11-14T02:12:01.076Z,7.08
2022-11-14T02:13:01.049Z,7.11
2022-11-14T02:14:01.053Z,7.14
2022-11-14T02:15:01.071Z,7.14
2022-11-14T02:16:01.017Z,7.15
2022-11-14T02:17:27.989Z,7.16
2022-11-14T02:18:01.042Z,7.16
2022-11-14T02:19:01.004Z,7.19
2022-11-14T02:20:05.094Z,7.18
2022-11-14T02:21:01.012Z,7.15
2022-11-14T02:22:01.002Z,7.14
2022-11-14T02:23:00.966Z,7.16
2022-11-14T02:24:00.925Z,7.14
2022-11-14T02:25:00.924Z,7.15
2022-11-14T02:26:00.912Z,7.16
2022-11-14T02:27:00.911Z,7.18
2022-11-14T02:28:00.964Z,7.14
2022-11-14T02:29:00.947Z,7.15
2022-11-14T02:30:00.908Z,7.15
2022-11-14T02:31:00.847Z,7.16
2022-11-14T02:32:00.892Z,7.18
2022-11-14T02:33:16.314Z,7.16
2022-11-14T02:34:00.898Z,7.18
2022-11-14T02:35:00.812Z,7.18
2022-11-14T02:36:00.803Z,7.18
2022-11-14T02:37:00.813Z,7.23
2022-11-14T02:38:00.795Z,7.23
2022-11-14T02:39:00.831Z,7.23
2022-11-14T02:40:00.857Z,7.23
2022-11-14T02:41:00.771Z,7.23
2022-11-14T02:42:00.859Z,7.24
2022-11-14T02:43:00.892Z,7.23
2022-11-14T02:44:00.716Z,7.21
2022-11-14T02:45:00.709Z,7.21
2022-11-14T02:46:05.351Z,7.18
2022-11-14T02:47:00.782Z,7.16
2022-11-14T02:48:00.689Z,7.14
2022-11-14T02:49:00.699Z,7.14
2022-11-14T02:50:00.703Z,7.11
2022-11-14T02:51:00.638Z,7.12
2022-11-14T02:52:00.669Z,7.09
2022-11-14T02:53:00.652Z,7.11
2022-11-14T02:54:00.654Z,7.11
2022-11-14T02:55:00.632Z,7.07
2022-11-14T02:56:00.645Z,7.05
2022-11-14T02:57:00.584Z,7.09
2022-11-14T02:58:00.643Z,7.09
2022-11-14T02:59:00.611Z,7.08
2022-11-14T03:00:00.671Z,7.09
2022-11-14T03:01:19.580Z,7.09
2022-11-14T03:02:00.642Z,7.09
2022-11-14T03:03:00.533Z,7.09
2022-11-14T03:04:00.577Z,7.09
2022-11-14T03:05:00.582Z,7.11
2022-11-14T03:06:00.558Z,7.12
2022-11-14T03:07:00.599Z,7.11
2022-11-14T03:08:00.465Z,7.12
2022-11-14T03:09:00.561Z,7.12
2022-11-14T03:10:00.538Z,7.11
2022-11-14T03:11:00.480Z,7.14
2022-11-14T03:12:00.532Z,7.14
2022-11-14T03:13:00.449Z,7.15
2022-11-14T03:14:00.398Z,7.16
2022-11-14T03:15:00.387Z,7.15
2022-11-14T03:16:00.404Z,7.15
2022-11-14T03:17:00.458Z,7.12
2022-11-14T03:18:00.384Z,7.14
2022-11-14T03:19:00.385Z,7.15
2022-11-14T03:20:00.342Z,7.16
2022-11-14T03:21:00.390Z,7.15
2022-11-14T03:22:00.520Z,7.16
2022-11-14T03:23:00.323Z,7.16
2022-11-14T03:24:00.326Z,7.16
2022-11-14T03:25:00.348Z,7.19
2022-11-14T03:26:00.355Z,7.18
2022-11-14T03:27:00.427Z,7.16
2022-11-14T03:28:00.262Z,7.18
2022-11-14T03:29:00.249Z,7.16
2022-11-14T03:30:00.383Z,7.14
2022-11-14T03:31:00.268Z,7.12
2022-11-14T03:32:00.267Z,7.12
2022-11-14T03:33:00.279Z,7.09
2022-11-14T03:34:00.187Z,7.09
2022-11-14T03:35:00.203Z,7.09
2022-11-14T03:36:00.194Z,7.08
2022-11-14T03:37:00.170Z,7.08
2022-11-14T03:38:00.217Z,7.05
2022-11-14T03:39:00.194Z,7.08
2022-11-14T03:40:00.178Z,7.08
2022-11-14T03:41:00.141Z,7.08
2022-11-14T03:42:00.239Z,7.07
2022-11-14T03:43:00.135Z,7.05
2022-11-14T03:44:00.131Z,7.07
2022-11-14T03:45:00.120Z,7.04
2022-11-14T03:46:00.070Z,7.04
2022-11-14T03:47:00.124Z,7.01
2022-11-14T03:48:00.045Z,7.00
2022-11-14T03:49:00.172Z,6.97
2022-11-14T03:50:00.080Z,6.93
2022-11-14T03:51:00.010Z,6.91
2022-11-14T03:52:00.100Z,6.91
2022-11-14T03:52:59.990Z,6.89
2022-11-14T03:54:00.009Z,6.87
2022-11-14T03:55:00.004Z,6.87
2022-11-14T03:55:59.958Z,6.86
2022-11-14T03:56:59.962Z,6.82
2022-11-14T03:57:59.963Z,6.83
2022-11-14T03:59:00.001Z,6.82
2022-11-14T03:59:59.949Z,6.81
2022-11-14T04:00:59.978Z,6.82
2022-11-14T04:02:00.025Z,6.82
2022-11-14T04:02:59.969Z,6.81
2022-11-14T04:03:59.878Z,6.83
2022-11-14T04:04:59.889Z,6.86
2022-11-14T04:05:59.861Z,6.87
2022-11-14T04:06:59.928Z,6.89
2022-11-14T04:07:59.920Z,6.89
2022-11-14T04:08:59.827Z,6.91
2022-11-14T04:09:59.834Z,6.89
2022-11-14T04:10:59.825Z,6.90
2022-11-14T04:11:59.826Z,6.89
2022-11-14T04:12:59.785Z,6.90
2022-11-14T04:13:59.781Z,6.89
2022-11-14T04:14:59.792Z,6.89
2022-11-14T04:15:59.758Z,6.86
2022-11-14T04:16:59.781Z,6.87
2022-11-14T04:17:59.741Z,6.86
2022-11-14T04:18:59.748Z,6.83
2022-11-14T04:19:59.721Z,6.82
2022-11-14T04:20:59.750Z,6.81
2022-11-14T04:21:59.743Z,6.82
2022-11-14T04:22:59.689Z,6.81
2022-11-14T04:23:59.686Z,6.81
2022-11-14T04:24:59.685Z,6.78
2022-11-14T04:25:59.703Z,6.76
2022-11-14T04:26:59.656Z,6.75
2022-11-14T04:27:59.635Z,6.73
2022-11-14T04:28:59.679Z,6.72
2022-11-14T04:29:59.608Z,6.71
2022-11-14T04:30:59.611Z,6.71
2022-11-14T04:31:59.607Z,6.72
2022-11-14T04:32:59.589Z,6.71
2022-11-14T04:33:59.567Z,6.71
2022-11-14T04:34:59.592Z,6.69
2022-11-14T04:35:59.548Z,6.71
2022-11-14T04:36:59.556Z,6.69
2022-11-14T04:37:59.550Z,6.71
2022-11-14T04:38:59.525Z,6.72
2022-11-14T04:39:59.503Z,6.72
2022-11-14T04:40:59.550Z,6.72
2022-11-14T04:41:59.491Z,6.75
2022-11-14T04:42:59.481Z,6.73
2022-11-14T04:43:59.508Z,6.73
2022-11-14T04:44:59.483Z,6.78
2022-11-14T04:45:59.446Z,6.76
2022-11-14T04:46:59.453Z,6.76
2022-11-14T04:47:59.438Z,6.79
2022-11-14T04:48:59.418Z,6.81
2022-11-14T04:49:59.396Z,6.78
2022-11-14T04:50:59.427Z,6.79
2022-11-14T04:51:59.396Z,6.81
2022-11-14T04:52:59.403Z,6.81
2022-11-14T04:53:59.359Z,6.81
2022-11-14T04:54:59.346Z,6.79
2022-11-14T04:55:59.346Z,6.79
2022-11-14T04:56:59.346Z,6.76
2022-11-14T04:57:59.308Z,6.76
2022-11-14T04:58:59.305Z,6.76
2022-11-14T04:59:59.303Z,6.78
2022-11-14T05:00:59.351Z,6.78
2022-11-14T05:01:59.293Z,6.78
2022-11-14T05:02:59.268Z,6.81
2022-11-14T05:03:59.247Z,6.81
2022-11-14T05:04:59.244Z,6.78
2022-11-14T05:05:59.237Z,6.79
2022-11-14T05:06:59.326Z,6.79
2022-11-14T05:07:59.208Z,6.78
2022-11-14T05:08:59.207Z,6.75
2022-11-14T05:09:59.221Z,6.75
2022-11-14T05:10:59.213Z,6.76
2022-11-14T05:11:59.169Z,6.78
2022-11-14T05:12:59.164Z,6.76
2022-11-14T05:13:59.146Z,6.76
2022-11-14T05:14:59.148Z,6.78
2022-11-14T05:15:59.143Z,6.78
2022-11-14T05:16:59.130Z,6.78
2022-11-14T05:17:59.134Z,6.81
2022-11-14T05:18:59.098Z,6.79
2022-11-14T05:19:59.089Z,6.79
2022-11-14T05:20:59.091Z,6.79
2022-11-14T05:21:59.060Z,6.79
2022-11-14T05:22:59.122Z,6.78
2022-11-14T05:23:59.050Z,6.78
2022-11-14T05:24:59.054Z,6.76
2022-11-14T05:25:59.043Z,6.78
2022-11-14T05:26:59.076Z,6.75
2022-11-14T05:27:59.000Z,6.73
2022-11-14T05:28:59.089Z,6.73
2022-11-14T05:29:59.055Z,6.73
2022-11-14T05:30:58.982Z,6.75
2022-11-14T05:31:59.006Z,6.75
2022-11-14T05:32:58.971Z,6.75
2022-11-14T05:33:58.958Z,6.75
2022-11-14T05:34:58.933Z,6.73
2022-11-14T05:35:58.936Z,6.72
2022-11-14T05:36:58.967Z,6.72
2022-11-14T05:38:00.132Z,6.71
2022-11-14T05:38:58.950Z,6.72
2022-11-14T05:39:58.881Z,6.72
2022-11-14T05:40:58.891Z,6.73
2022-11-14T05:41:59.004Z,6.73
2022-11-14T05:42:58.903Z,6.72
2022-11-14T05:43:58.850Z,6.73
2022-11-14T05:44:58.873Z,6.73
2022-11-14T05:45:58.880Z,6.73
2022-11-14T05:46:58.900Z,6.73
2022-11-14T05:47:58.837Z,6.75
2022-11-14T05:48:58.814Z,6.72
2022-11-14T05:49:58.770Z,6.71
2022-11-14T05:50:58.940Z,6.69
2022-11-14T05:51:58.744Z,6.72
2022-11-14T05:52:58.839Z,6.71
2022-11-14T05:53:58.735Z,6.71
2022-11-14T05:54:58.842Z,6.65
2022-11-14T05:55:58.762Z,6.68
2022-11-14T05:56:58.732Z,6.69
2022-11-14T05:57:58.643Z,6.69
2022-11-14T05:58:58.649Z,6.69
2022-11-14T05:59:58.673Z,6.71
2022-11-14T06:00:58.684Z,6.72
2022-11-14T06:01:58.707Z,6.73
2022-11-14T06:02:58.621Z,6.76
2022-11-14T06:03:58.578Z,6.78
2022-11-14T06:04:58.575Z,6.75
2022-11-14T06:05:58.601Z,6.81
2022-11-14T06:06:58.752Z,6.81
2022-11-14T06:07:58.532Z,6.82
2022-11-14T06:08:58.636Z,6.81
2022-11-14T06:09:58.529Z,6.82
2022-11-14T06:10:58.532Z,6.82
2022-11-14T06:11:58.541Z,6.81
2022-11-14T06:12:58.670Z,6.82
2022-11-14T06:13:58.569Z,6.79
2022-11-14T06:14:58.465Z,6.82
2022-11-14T06:15:58.564Z,6.81
2022-11-14T06:16:58.507Z,6.81
2022-11-14T06:17:58.624Z,6.82
2022-11-14T06:18:58.483Z,6.82
2022-11-14T06:19:58.410Z,6.81
2022-11-14T06:20:58.434Z,6.81
2022-11-14T06:21:58.543Z,6.81
2022-11-14T06:22:58.408Z,6.82
2022-11-14T06:23:58.446Z,6.81
2022-11-14T06:24:58.365Z,6.79
2022-11-14T06:25:58.427Z,6.76
2022-11-14T06:26:58.375Z,6.78
2022-11-14T06:27:58.327Z,6.75
2022-11-14T06:28:58.317Z,6.75
2022-11-14T06:29:58.323Z,6.76
2022-11-14T06:30:58.319Z,6.76
2022-11-14T06:31:58.314Z,6.75
2022-11-14T06:32:58.280Z,6.76
2022-11-14T06:33:58.257Z,6.78
2022-11-14T06:34:58.286Z,6.75
2022-11-14T06:35:58.261Z,6.76
2022-11-14T06:36:58.228Z,6.73
2022-11-14T06:37:58.227Z,6.73
2022-11-14T06:38:58.226Z,6.71
2022-11-14T06:39:58.250Z,6.69
2022-11-14T06:40:58.214Z,6.69
2022-11-14T06:41:58.176Z,6.71
2022-11-14T06:42:58.164Z,6.72
2022-11-14T06:43:58.163Z,6.72
2022-11-14T06:44:58.174Z,6.73
2022-11-14T06:45:58.147Z,6.68
2022-11-14T06:46:58.126Z,6.71
2022-11-14T06:47:58.114Z,6.72
2022-11-14T06:48:58.112Z,6.71
2022-11-14T06:49:58.123Z,6.72
2022-11-14T06:50:58.215Z,6.72
2022-11-14T06:51:58.131Z,6.73
2022-11-14T06:52:58.182Z,6.75
2022-11-14T06:53:58.058Z,6.76
2022-11-14T06:54:58.115Z,6.76
2022-11-14T06:55:58.116Z,6.79
2022-11-14T06:56:58.079Z,6.78
2022-11-14T06:57:58.187Z,6.81
2022-11-14T06:58:58.024Z,6.82
2022-11-14T06:59:58.006Z,6.79
2022-11-14T07:00:58.172Z,6.78
2022-11-14T07:01:58.002Z,6.81
2022-11-14T07:02:58.036Z,6.81
2022-11-14T07:03:57.984Z,6.81
2022-11-14T07:04:58.013Z,6.81
2022-11-14T07:05:58.072Z,6.76
2022-11-14T07:06:58.148Z,6.82
2022-11-14T07:07:58.055Z,6.82
2022-11-14T07:08:57.943Z,6.82
2022-11-14T07:09:58.009Z,6.79
2022-11-14T07:10:57.950Z,6.81
2022-11-14T07:12:03.937Z,6.78
2022-11-14T07:12:57.852Z,6.78
2022-11-14T07:13:58.558Z,6.81
2022-11-14T07:14:57.852Z,6.81
2022-11-14T07:15:57.873Z,6.81
2022-11-14T07:16:57.852Z,6.81
2022-11-14T07:17:57.800Z,6.81
2022-11-14T07:18:57.816Z,6.83
2022-11-14T07:19:57.771Z,6.83
2022-11-14T07:20:57.792Z,6.86
2022-11-14T07:21:57.758Z,6.91
2022-11-14T07:22:57.770Z,6.93
2022-11-14T07:23:57.742Z,7.01
2022-11-14T07:24:57.746Z,7.01
2022-11-14T07:25:57.752Z,7.01
2022-11-14T07:26:57.742Z,7.07
2022-11-14T07:27:57.692Z,7.12
2022-11-14T07:29:02.129Z,7.14
2022-11-14T07:29:57.736Z,7.14
2022-11-14T07:30:57.673Z,7.19
2022-11-14T07:31:57.652Z,7.18
2022-11-14T07:32:57.656Z,7.19
2022-11-14T07:33:57.651Z,7.29
2022-11-14T07:35:01.863Z,7.33
2022-11-14T07:35:57.633Z,7.39
2022-11-14T07:36:57.603Z,7.41
2022-11-14T07:37:57.629Z,7.37
2022-11-14T07:38:57.582Z,7.33
2022-11-14T07:39:57.588Z,7.29
2022-11-14T07:40:59.984Z,7.29
2022-11-14T07:41:57.589Z,7.26
2022-11-14T07:42:57.540Z,7.26
2022-11-14T07:43:57.522Z,7.27
2022-11-14T07:44:57.523Z,7.26
2022-11-14T07:45:57.522Z,7.24
2022-11-14T07:46:57.500Z,7.15
2022-11-14T07:47:57.492Z,7.14
2022-11-14T07:48:57.480Z,7.11
2022-11-14T07:49:57.474Z,7.09
2022-11-14T07:50:57.475Z,7.14
2022-11-14T07:51:57.439Z,7.14
2022-11-14T07:52:57.510Z,7.14
2022-11-14T07:53:57.426Z,7.12
2022-11-14T07:54:57.469Z,7.12
2022-11-14T07:55:57.511Z,7.09
2022-11-14T07:56:57.415Z,7.08
2022-11-14T07:57:57.406Z,7.08
2022-11-14T07:58:57.453Z,7.11
2022-11-14T07:59:57.364Z,7.11
2022-11-14T08:00:57.489Z,7.14
2022-11-14T08:01:57.365Z,7.15
2022-11-14T08:02:57.375Z,7.19
2022-11-14T08:03:57.369Z,7.27
2022-11-14T08:04:57.338Z,7.37
2022-11-14T08:05:57.319Z,7.54
2022-11-14T08:06:57.370Z,7.60
2022-11-14T08:07:57.276Z,7.70
2022-11-14T08:08:57.281Z,7.79
2022-11-14T08:09:57.257Z,7.86
2022-11-14T08:10:57.337Z,7.92
2022-11-14T08:11:57.228Z,7.91
2022-11-14T08:13:24.804Z,7.91
2022-11-14T08:13:57.212Z,7.85
2022-11-14T08:14:57.223Z,7.85
2022-11-14T08:15:57.205Z,7.85
2022-11-14T08:16:57.196Z,7.89
2022-11-14T08:17:57.171Z,7.82
2022-11-14T08:18:57.191Z,7.76
2022-11-14T08:19:57.148Z,7.70
2022-11-14T08:20:57.209Z,7.67
2022-11-14T08:21:57.127Z,7.62
2022-11-14T08:22:57.143Z,7.62
2022-11-14T08:23:57.110Z,7.58
2022-11-14T08:24:57.179Z,7.60
2022-11-14T08:25:57.090Z,7.58
2022-11-14T08:26:57.144Z,7.60
2022-11-14T08:27:57.067Z,7.57
2022-11-14T08:28:57.076Z,7.55
2022-11-14T08:29:57.055Z,7.58
2022-11-14T08:30:57.056Z,7.55
2022-11-14T08:31:59.963Z,7.52
2022-11-14T08:32:57.012Z,7.57
2022-11-14T08:33:57.012Z,7.60
2022-11-14T08:34:56.988Z,7.63
2022-11-14T08:35:56.991Z,7.70
2022-11-14T08:36:56.968Z,7.76
2022-11-14T08:37:56.963Z,7.81
2022-11-14T08:39:01.620Z,7.89
2022-11-14T08:39:56.952Z,8.00
2022-11-14T08:40:56.944Z,8.07
2022-11-14T08:41:56.922Z,8.10
2022-11-14T08:42:56.905Z,8.13
2022-11-14T08:43:56.908Z,8.18
2022-11-14T08:44:56.886Z,8.14
2022-11-14T08:46:01.068Z,8.14
2022-11-14T08:46:56.872Z,8.14
2022-11-14T08:47:56.882Z,8.10
2022-11-14T08:48:56.869Z,8.10
2022-11-14T08:49:56.840Z,8.14
2022-11-14T08:50:56.881Z,8.29
2022-11-14T08:51:56.823Z,8.47
2022-11-14T08:52:56.802Z,8.58
2022-11-14T08:53:56.797Z,8.79
2022-11-14T08:54:56.793Z,8.79
2022-11-14T08:55:56.792Z,8.85
2022-11-14T08:56:56.772Z,8.93
2022-11-14T08:57:56.767Z,8.94
2022-11-14T08:58:56.741Z,9.04
2022-11-14T08:59:56.739Z,9.22
2022-11-14T09:00:56.725Z,9.30
2022-11-14T09:01:56.722Z,9.41
2022-11-14T09:02:56.789Z,9.58
2022-11-14T09:03:59.875Z,9.70
2022-11-14T09:04:56.737Z,9.77
2022-11-14T09:05:56.684Z,9.74
2022-11-14T09:06:56.699Z,9.74
2022-11-14T09:07:56.647Z,9.75
2022-11-14T09:08:56.640Z,9.74
2022-11-14T09:09:56.622Z,9.78
2022-11-14T09:11:00.227Z,9.65
2022-11-14T09:11:56.614Z,9.53
2022-11-14T09:12:56.593Z,9.42
2022-11-14T09:13:56.617Z,9.41
2022-11-14T09:14:56.570Z,9.35
2022-11-14T09:15:56.598Z,9.34
2022-11-14T09:16:56.545Z,9.22
2022-11-14T09:17:56.566Z,9.15
2022-11-14T09:18:56.530Z,9.22
2022-11-14T09:19:56.529Z,9.30
2022-11-14T09:20:56.515Z,9.20
2022-11-14T09:21:56.601Z,9.13
2022-11-14T09:22:56.490Z,9.13
2022-11-14T09:24:00.652Z,9.15
2022-11-14T09:24:56.478Z,9.17
2022-11-14T09:25:56.546Z,9.19
2022-11-14T09:26:57.280Z,9.24
2022-11-14T09:27:56.438Z,9.27
2022-11-14T09:28:56.417Z,9.31
2022-11-14T09:29:56.514Z,9.27
2022-11-14T09:30:56.424Z,9.24
2022-11-14T09:31:56.414Z,9.24
2022-11-14T09:32:56.380Z,9.17
2022-11-14T09:33:56.391Z,9.08
2022-11-14T09:34:56.369Z,9.04
2022-11-14T09:35:56.464Z,9.03
2022-11-14T09:36:56.349Z,9.03
2022-11-14T09:37:56.377Z,9.04
2022-11-14T09:38:56.311Z,9.12
2022-11-14T09:39:56.357Z,9.13
2022-11-14T09:40:56.327Z,9.15
2022-11-14T09:41:56.327Z,9.16
2022-11-14T09:42:56.296Z,9.19
2022-11-14T09:43:56.289Z,9.16
2022-11-14T09:44:56.271Z,9.16
2022-11-14T09:45:56.301Z,9.16
2022-11-14T09:46:56.241Z,9.16
2022-11-14T09:47:56.347Z,9.13
2022-11-14T09:48:56.205Z,9.16
2022-11-14T09:49:56.290Z,9.20
2022-11-14T09:50:56.244Z,9.22
2022-11-14T09:51:56.209Z,9.23
2022-11-14T09:52:56.188Z,9.24
2022-11-14T09:53:56.160Z,9.24
2022-11-14T09:54:56.151Z,9.27
2022-11-14T09:55:56.149Z,9.32
2022-11-14T09:56:56.128Z,9.24
2022-11-14T09:57:56.115Z,9.24
2022-11-14T09:58:56.105Z,9.24
2022-11-14T09:59:56.094Z,9.26
2022-11-14T10:00:56.087Z,9.27
2022-11-14T10:01:56.131Z,9.31
2022-11-14T10:02:56.096Z,9.31
2022-11-14T10:03:56.054Z,9.34
2022-11-14T10:04:56.046Z,9.37
2022-11-14T10:05:56.058Z,9.40
2022-11-14T10:06:56.066Z,9.42
2022-11-14T10:07:56.031Z,9.45
2022-11-14T10:08:56.010Z,9.48
2022-11-14T10:09:56.016Z,9.49
2022-11-14T10:10:55.993Z,9.48
2022-11-14T10:11:55.999Z,9.41
2022-11-14T10:12:55.954Z,9.41
2022-11-14T10:13:55.960Z,9.40
2022-11-14T10:14:55.954Z,9.40
2022-11-14T10:15:55.950Z,9.37
2022-11-14T10:16:55.914Z,9.38
2022-11-14T10:17:55.916Z,9.35
2022-11-14T10:18:55.893Z,9.37
2022-11-14T10:19:55.891Z,9.38
2022-11-14T10:20:55.888Z,9.34
2022-11-14T10:21:55.879Z,9.31
2022-11-14T10:23:01.029Z,9.30
2022-11-14T10:23:55.883Z,9.27
2022-11-14T10:24:55.848Z,9.27
2022-11-14T10:25:55.952Z,9.24
2022-11-14T10:26:55.822Z,9.26
2022-11-14T10:27:58.600Z,9.22
2022-11-14T10:28:55.803Z,9.26
2022-11-14T10:29:55.787Z,9.27
2022-11-14T10:30:55.789Z,9.31
2022-11-14T10:31:55.756Z,9.34
2022-11-14T10:32:55.751Z,9.31
2022-11-14T10:33:55.747Z,9.35
2022-11-14T10:34:55.732Z,9.38
2022-11-14T10:35:55.735Z,9.37
2022-11-14T10:36:55.713Z,9.44
2022-11-14T10:37:55.697Z,9.48
2022-11-14T10:38:55.679Z,9.44
2022-11-14T10:39:55.741Z,9.48
2022-11-14T10:40:55.668Z,9.49
2022-11-14T10:41:58.819Z,9.49
2022-11-14T10:42:55.641Z,9.49
2022-11-14T10:43:55.641Z,9.52
2022-11-14T10:44:55.619Z,9.50
2022-11-14T10:45:55.620Z,9.52
2022-11-14T10:46:55.601Z,9.52
2022-11-14T10:47:55.593Z,9.53
2022-11-14T10:49:00.080Z,9.52
2022-11-14T10:49:55.593Z,9.53
2022-11-14T10:50:55.587Z,9.52
2022-11-14T10:51:55.550Z,9.55
2022-11-14T10:52:55.536Z,9.56
2022-11-14T10:53:55.546Z,9.58
2022-11-14T10:54:55.515Z,9.56
2022-11-14T10:56:04.302Z,9.56
2022-11-14T10:56:55.495Z,9.59
2022-11-14T10:57:55.486Z,9.58
2022-11-14T10:58:55.477Z,9.56
2022-11-14T10:59:55.463Z,9.53
2022-11-14T11:00:55.544Z,9.53
2022-11-14T11:01:55.457Z,9.58
2022-11-14T11:02:55.425Z,9.56
2022-11-14T11:03:55.550Z,9.56
2022-11-14T11:04:55.409Z,9.59
2022-11-14T11:05:55.437Z,9.59
2022-11-14T11:06:55.436Z,9.63
2022-11-14T11:07:55.415Z,9.62
2022-11-14T11:08:55.438Z,9.63
2022-11-14T11:09:55.403Z,9.67
2022-11-14T11:10:55.352Z,9.70
2022-11-14T11:11:55.331Z,9.71
2022-11-14T11:12:55.417Z,9.73
2022-11-14T11:13:55.329Z,9.75
2022-11-14T11:14:55.301Z,9.73
2022-11-14T11:15:55.304Z,9.75
2022-11-14T11:16:55.292Z,9.75
2022-11-14T11:17:55.289Z,9.75
2022-11-14T11:18:55.340Z,9.74
2022-11-14T11:19:55.261Z,9.73
2022-11-14T11:20:55.351Z,9.74
2022-11-14T11:21:55.265Z,9.75
2022-11-14T11:22:58.524Z,9.78
2022-11-14T11:23:55.242Z,9.78
2022-11-14T11:24:55.194Z,9.83
2022-11-14T11:25:55.200Z,9.85
2022-11-14T11:26:55.226Z,9.88
2022-11-14T11:27:55.166Z,9.89
2022-11-14T11:28:55.148Z,9.91
2022-11-14T11:29:55.147Z,9.92
2022-11-14T11:30:55.145Z,9.95
2022-11-14T11:31:55.135Z,9.95
2022-11-14T11:32:55.150Z,9.96
2022-11-14T11:33:55.101Z,9.99
2022-11-14T11:34:55.086Z,9.96
2022-11-14T11:35:55.103Z,9.99
2022-11-14T11:36:55.072Z,10.01
2022-11-14T11:37:55.062Z,10.01
2022-11-14T11:38:55.046Z,10.01
2022-11-14T11:39:55.049Z,10.04
2022-11-14T11:40:55.056Z,10.07
2022-11-14T11:42:10.994Z,10.11
2022-11-14T11:43:57.077Z,10.17
2022-11-14T11:44:54.985Z,10.18
2022-11-14T11:45:55.043Z,10.22
2022-11-14T11:46:54.988Z,10.22
2022-11-14T11:47:54.950Z,10.22
2022-11-14T11:48:54.941Z,10.20
2022-11-14T11:49:55.063Z,10.18
2022-11-14T11:50:54.922Z,10.16
2022-11-14T11:51:54.934Z,10.16
2022-11-14T11:52:54.889Z,10.14
2022-11-14T11:53:54.894Z,10.17
2022-11-14T11:54:54.896Z,10.16
2022-11-14T11:55:54.880Z,10.11
2022-11-14T11:56:54.855Z,10.14
2022-11-14T11:57:54.856Z,10.16
2022-11-14T11:58:54.833Z,10.17
2022-11-14T11:59:54.828Z,10.16
2022-11-14T12:00:54.824Z,10.18
2022-11-14T12:01:54.841Z,10.17
2022-11-14T12:02:54.901Z,10.18
2022-11-14T12:03:54.847Z,10.22
2022-11-14T12:04:54.772Z,10.25
2022-11-14T12:05:54.776Z,10.26
2022-11-14T12:06:54.772Z,10.28
2022-11-14T12:07:54.742Z,10.31
2022-11-14T12:08:54.735Z,10.34
2022-11-14T12:10:11.080Z,10.34
2022-11-14T12:10:54.738Z,10.36
2022-11-14T12:11:54.703Z,10.38
2022-11-14T12:12:54.683Z,10.39
2022-11-14T12:13:54.706Z,10.39
2022-11-14T12:14:54.658Z,10.39
2022-11-14T12:15:54.664Z,10.43
2022-11-14T12:16:54.649Z,10.43
2022-11-14T12:17:54.642Z,10.46
2022-11-14T12:18:54.620Z,10.49
2022-11-14T12:19:54.626Z,10.49
2022-11-14T12:20:54.611Z,10.49
2022-11-14T12:21:58.685Z,10.51
2022-11-14T12:22:54.572Z,10.54
2022-11-14T12:23:54.570Z,10.55
2022-11-14T12:24:54.577Z,10.58
2022-11-14T12:25:54.665Z,10.62
2022-11-14T12:26:54.535Z,10.62
2022-11-14T12:27:54.621Z,10.63
2022-11-14T12:28:54.509Z,10.65
2022-11-14T12:29:54.503Z,10.65
2022-11-14T12:30:54.518Z,10.66
2022-11-14T12:31:54.485Z,10.68
2022-11-14T12:32:54.496Z,10.69
2022-11-14T12:33:54.464Z,10.68
2022-11-14T12:34:54.545Z,10.68
2022-11-14T12:35:54.457Z,10.70
2022-11-14T12:36:54.456Z,10.72
2022-11-14T12:37:56.038Z,10.73
2022-11-14T12:38:54.409Z,10.73
2022-11-14T12:39:54.407Z,10.72
2022-11-14T12:40:54.431Z,10.76
2022-11-14T12:41:54.381Z,10.73
2022-11-14T12:42:54.360Z,10.73
2022-11-14T12:43:54.396Z,10.75
2022-11-14T12:44:54.356Z,10.76
2022-11-14T12:45:54.336Z,10.76
2022-11-14T12:46:54.321Z,10.76
2022-11-14T12:47:54.324Z,10.78
2022-11-14T12:48:54.306Z,10.76
2022-11-14T12:49:54.290Z,10.78
2022-11-14T12:50:54.318Z,10.78
2022-11-14T12:51:54.268Z,10.80
2022-11-14T12:52:54.264Z,10.83
2022-11-14T12:53:54.263Z,10.78
2022-11-14T12:54:54.240Z,10.81
2022-11-14T12:55:54.238Z,10.83
2022-11-14T12:56:54.386Z,10.83
2022-11-14T12:57:54.207Z,10.83
2022-11-14T12:58:54.205Z,10.83
2022-11-14T12:59:54.190Z,10.83
2022-11-14T13:00:54.315Z,10.83
2022-11-14T13:01:54.254Z,10.83
2022-11-14T13:02:54.164Z,10.81
2022-11-14T13:03:54.181Z,10.93
2022-11-14T13:04:54.144Z,11.01
2022-11-14T13:05:54.143Z,11.06
2022-11-14T13:06:54.214Z,11.17
2022-11-14T13:07:54.094Z,11.24
2022-11-14T13:08:54.096Z,11.27
2022-11-14T13:09:54.151Z,11.24
2022-11-14T13:10:54.090Z,11.26
2022-11-14T13:11:54.055Z,11.27
2022-11-14T13:13:01.734Z,11.27
2022-11-14T13:13:54.033Z,11.23
2022-11-14T13:14:57.308Z,11.20
2022-11-14T13:15:54.020Z,11.16